Time;durP1;ratioP1;P1;durP2;ratioP2;P2;SDS_P1;SDS_P2;PMS_P1;PMS_P2;Temp;Humidity;BMP_temperature;BMP_pressure;BME280_temperature;BME280_humidity;BME280_pressure;Samples;Min_cycle;Max_cycle;Signal;HPM_P1;HPM_P2
2024/01/03 00:00:55;;;;;;;5.87;1.53;;;;;;;;;;5033111;28;20571;-79
2024/01/03 00:03:22;;;;;;;4.37;1.30;;;;;;;;;;5032985;28;20531;-79
2024/01/03 00:05:50;;;;;;;4.60;1.90;;;;;;;;;;5032872;28;20559;-79
2024/01/03 00:08:21;;;;;;;3.10;1.47;;;;;;;;;;5032937;28;20532;-78
2024/01/03 00:10:49;;;;;;;2.87;2.57;;;;;;;;;;5032555;28;20555;-78
2024/01/03 00:13:35;;;;;;;2.50;1.20;;;;;;;;;;5033204;28;20869;-78
2024/01/03 00:16:19;;;;;;;6.70;2.10;;;;;;;;;;5032463;28;20567;-78
2024/01/03 00:18:47;;;;;;;5.80;2.03;;;;;;;;;;5032548;28;20870;-80
2024/01/03 00:21:15;;;;;;;4.33;1.80;;;;;;;;;;5032917;28;20540;-79
2024/01/03 00:23:48;;;;;;;5.97;2.13;;;;;;;;;;5032690;28;20531;-78
2024/01/03 00:26:15;;;;;;;4.83;2.10;;;;;;;;;;5032499;28;20544;-78
2024/01/03 00:28:42;;;;;;;4.23;1.43;;;;;;;;;;5032811;28;20524;-78
2024/01/03 00:31:10;;;;;;;3.90;1.47;;;;;;;;;;5032738;28;20500;-78
2024/01/03 00:33:40;;;;;;;6.37;1.50;;;;;;;;;;5032750;28;20446;-78
2024/01/03 00:36:07;;;;;;;6.57;1.50;;;;;;;;;;5032102;28;20587;-79
2024/01/03 00:38:37;;;;;;;4.90;1.40;;;;;;;;;;5032723;28;20519;-79
2024/01/03 00:41:03;;;;;;;4.20;1.80;;;;;;;;;;5032027;28;20496;-78
2024/01/03 00:43:30;;;;;;;8.80;2.73;;;;;;;;;;5031940;28;20443;-79
2024/01/03 00:45:57;;;;;;;9.50;2.50;;;;;;;;;;5032092;28;20901;-78
2024/01/03 00:48:24;;;;;;;3.50;1.50;;;;;;;;;;5032340;28;20527;-78
2024/01/03 00:50:50;;;;;;;5.93;1.60;;;;;;;;;;5032474;28;20575;-78
2024/01/03 00:53:17;;;;;;;7.83;2.23;;;;;;;;;;5032513;28;21042;-78
2024/01/03 00:55:45;;;;;;;5.17;2.10;;;;;;;;;;5031614;28;20486;-78
2024/01/03 00:58:10;;;;;;;10.87;2.50;;;;;;;;;;4992769;28;1139609;-79
2024/01/03 01:00:37;;;;;;;3.30;1.50;;;;;;;;;;5032877;28;20251;-78
2024/01/03 01:03:04;;;;;;;9.40;1.90;;;;;;;;;;5033283;28;20206;-78
2024/01/03 01:05:30;;;;;;;7.13;1.73;;;;;;;;;;5032316;28;21001;-79
2024/01/03 01:07:57;;;;;;;3.67;1.90;;;;;;;;;;5033022;28;21006;-78
2024/01/03 01:10:23;;;;;;;5.27;2.00;;;;;;;;;;5032653;28;20555;-78
2024/01/03 01:12:51;;;;;;;6.63;2.00;;;;;;;;;;5032999;28;21022;-78
2024/01/03 01:15:17;;;;;;;2.60;1.30;;;;;;;;;;5032764;28;21075;-79
2024/01/03 01:17:44;;;;;;;2.20;1.10;;;;;;;;;;5033373;28;20527;-79
2024/01/03 01:20:11;;;;;;;5.33;2.23;;;;;;;;;;5033160;28;20524;-78
2024/01/03 01:22:37;;;;;;;9.50;2.23;;;;;;;;;;5033275;28;20524;-78
2024/01/03 01:25:04;;;;;;;6.33;1.80;;;;;;;;;;5032696;28;20563;-79
2024/01/03 01:27:30;;;;;;;4.80;1.90;;;;;;;;;;5033477;28;20531;-78
2024/01/03 01:29:58;;;;;;;7.10;1.83;;;;;;;;;;5033215;28;20560;-78
2024/01/03 01:32:24;;;;;;;4.00;1.30;;;;;;;;;;5033164;28;21013;-79
2024/01/03 01:34:51;;;;;;;6.83;1.97;;;;;;;;;;5032796;28;20551;-79
2024/01/03 01:37:17;;;;;;;6.13;1.73;;;;;;;;;;5033566;28;20504;-79
2024/01/03 01:39:44;;;;;;;12.40;2.50;;;;;;;;;;5032945;28;20899;-79
2024/01/03 01:42:11;;;;;;;6.07;1.90;;;;;;;;;;5033460;28;20437;-79
2024/01/03 01:44:37;;;;;;;9.00;3.03;;;;;;;;;;5032776;28;20558;-79
2024/01/03 01:47:08;;;;;;;7.00;1.53;;;;;;;;;;5033334;28;20523;-79
2024/01/03 01:49:34;;;;;;;4.47;1.23;;;;;;;;;;5032717;28;20953;-79
2024/01/03 01:52:01;;;;;;;2.47;1.20;;;;;;;;;;5033303;28;20436;-79
2024/01/03 01:54:28;;;;;;;2.77;1.20;;;;;;;;;;5035603;28;20495;-79
2024/01/03 01:56:55;;;;;;;2.33;1.10;;;;;;;;;;5036998;28;21049;-78
2024/01/03 01:59:21;;;;;;;2.50;0.90;;;;;;;;;;5036430;28;20552;-78
2024/01/03 02:01:48;;;;;;;6.03;1.10;;;;;;;;;;5037018;28;20445;-78
2024/01/03 02:04:16;;;;;;;3.63;0.70;;;;;;;;;;5036255;28;20568;-79
2024/01/03 02:06:42;;;;;;;5.73;1.47;;;;;;;;;;5036773;28;20876;-78
2024/01/03 02:09:09;;;;;;;1.93;1.20;;;;;;;;;;5036252;28;20552;-78
2024/01/03 02:11:43;;;;;;;0.80;0.80;;;;;;;;;;5036369;28;20487;-78
2024/01/03 02:14:10;;;;;;;3.53;1.33;;;;;;;;;;5036223;28;20560;-79
2024/01/03 02:16:36;;;;;;;4.83;0.70;;;;;;;;;;5036885;28;20579;-78
2024/01/03 02:19:04;;;;;;;2.40;0.80;;;;;;;;;;5035857;28;20527;-78
2024/01/03 02:21:32;;;;;;;3.60;0.97;;;;;;;;;;5036893;28;20440;-78
2024/01/03 02:23:58;;;;;;;1.60;0.80;;;;;;;;;;5035858;28;20531;-79
2024/01/03 02:26:25;;;;;;;6.13;1.17;;;;;;;;;;5036507;28;20544;-79
2024/01/03 02:28:51;;;;;;;0.90;0.77;;;;;;;;;;5036397;28;20519;-80
2024/01/03 02:31:17;;;;;;;4.70;2.13;;;;;;;;;;5037143;28;20978;-78
2024/01/03 02:33:44;;;;;;;4.93;1.10;;;;;;;;;;5036122;28;20536;-79
2024/01/03 02:36:10;;;;;;;4.33;1.60;;;;;;;;;;5036758;28;20568;-78
2024/01/03 02:38:38;;;;;;;6.00;1.03;;;;;;;;;;5037468;28;20523;-78
2024/01/03 02:41:05;;;;;;;1.63;0.80;;;;;;;;;;5036375;28;20552;-78
2024/01/03 02:43:31;;;;;;;2.97;1.30;;;;;;;;;;5036526;28;20990;-78
2024/01/03 02:45:57;;;;;;;6.43;1.47;;;;;;;;;;5035800;28;20565;-78
2024/01/03 02:48:24;;;;;;;2.63;0.77;;;;;;;;;;5036417;28;20532;-78
2024/01/03 02:50:50;;;;;;;5.20;1.30;;;;;;;;;;5036478;28;20556;-78
2024/01/03 02:53:17;;;;;;;4.13;1.43;;;;;;;;;;5036974;28;20519;-78
2024/01/03 02:55:44;;;;;;;4.60;1.17;;;;;;;;;;5036072;28;20594;-78
2024/01/03 02:58:11;;;;;;;4.37;1.00;;;;;;;;;;5036466;28;20547;-78
2024/01/03 03:00:39;;;;;;;3.60;1.20;;;;;;;;;;5036139;28;20556;-78
2024/01/03 03:03:05;;;;;;;4.30;0.90;;;;;;;;;;5036796;28;20448;-78
2024/01/03 03:05:31;;;;;;;2.60;1.17;;;;;;;;;;5034197;28;20560;-78
2024/01/03 03:07:58;;;;;;;1.67;0.93;;;;;;;;;;5035587;28;20540;-78
2024/01/03 03:10:24;;;;;;;3.53;1.37;;;;;;;;;;5035166;28;20531;-78
2024/01/03 03:12:52;;;;;;;3.43;1.10;;;;;;;;;;5035578;28;20526;-79
2024/01/03 03:15:18;;;;;;;5.00;1.30;;;;;;;;;;5036435;28;20563;-78
2024/01/03 03:17:45;;;;;;;8.50;1.50;;;;;;;;;;5036606;28;20516;-78
2024/01/03 03:20:11;;;;;;;6.17;1.20;;;;;;;;;;5035066;28;20555;-78
2024/01/03 03:22:38;;;;;;;3.13;1.10;;;;;;;;;;5035747;28;20903;-78
2024/01/03 03:25:05;;;;;;;3.07;1.20;;;;;;;;;;5035272;28;20472;-79
2024/01/03 03:27:31;;;;;;;5.10;1.70;;;;;;;;;;5035498;28;20519;-78
2024/01/03 03:30:01;;;;;;;2.10;1.10;;;;;;;;;;5034839;28;20511;-78
2024/01/03 03:32:27;;;;;;;1.10;0.83;;;;;;;;;;5035432;28;20445;-78
2024/01/03 03:34:54;;;;;;;5.93;1.50;;;;;;;;;;5034327;28;20547;-78
2024/01/03 03:37:20;;;;;;;3.97;1.40;;;;;;;;;;5035314;28;20571;-78
2024/01/03 03:39:47;;;;;;;9.10;1.53;;;;;;;;;;5034823;28;20472;-78
2024/01/03 03:42:13;;;;;;;2.87;0.73;;;;;;;;;;5034723;28;20483;-78
2024/01/03 03:44:40;;;;;;;4.53;0.93;;;;;;;;;;5037670;28;20544;-78
2024/01/03 03:47:08;;;;;;;2.70;1.23;;;;;;;;;;5035572;28;20548;-77
2024/01/03 03:49:34;;;;;;;3.60;1.43;;;;;;;;;;5034415;28;20557;-77
2024/01/03 03:52:01;;;;;;;2.00;1.10;;;;;;;;;;5035085;28;20532;-77
2024/01/03 03:54:27;;;;;;;4.60;0.90;;;;;;;;;;5034484;28;20552;-77
2024/01/03 03:56:53;;;;;;;2.40;0.93;;;;;;;;;;5034764;28;20606;-76
2024/01/03 03:59:20;;;;;;;5.70;1.43;;;;;;;;;;5034509;28;20496;-77
2024/01/03 04:01:49;;;;;;;4.70;1.57;;;;;;;;;;5034452;28;20538;-79
2024/01/03 04:04:18;;;;;;;2.27;0.90;;;;;;;;;;5033942;28;20549;-79
2024/01/03 04:06:44;;;;;;;3.60;0.83;;;;;;;;;;5034615;28;20525;-77
2024/01/03 04:09:11;;;;;;;3.87;1.30;;;;;;;;;;5034021;28;20499;-77
2024/01/03 04:11:39;;;;;;;2.47;1.17;;;;;;;;;;5034726;28;20436;-77
2024/01/03 04:14:07;;;;;;;2.10;1.37;;;;;;;;;;5033948;28;20571;-77
2024/01/03 04:16:33;;;;;;;8.20;1.60;;;;;;;;;;5033944;28;20481;-79
2024/01/03 04:19:00;;;;;;;2.83;1.23;;;;;;;;;;5034444;28;20880;-79
2024/01/03 04:21:28;;;;;;;3.43;1.27;;;;;;;;;;5034432;28;20445;-79
2024/01/03 04:23:55;;;;;;;2.73;0.97;;;;;;;;;;5033678;28;20523;-79
2024/01/03 04:26:21;;;;;;;7.03;1.10;;;;;;;;;;5034537;28;20516;-79
2024/01/03 04:28:48;;;;;;;1.07;0.70;;;;;;;;;;5033686;28;21007;-80
2024/01/03 04:31:14;;;;;;;1.13;0.57;;;;;;;;;;5034265;28;20527;-79
2024/01/03 04:33:41;;;;;;;3.67;1.00;;;;;;;;;;5034497;28;20536;-78
2024/01/03 04:36:07;;;;;;;4.57;0.93;;;;;;;;;;5033581;28;20913;-80
2024/01/03 04:38:35;;;;;;;0.77;0.63;;;;;;;;;;5034738;28;20532;-77
2024/01/03 04:41:02;;;;;;;1.83;1.47;;;;;;;;;;5033828;28;20556;-77
2024/01/03 04:43:28;;;;;;;2.73;0.90;;;;;;;;;;5034121;28;20982;-77
2024/01/03 04:45:54;;;;;;;1.17;0.80;;;;;;;;;;5033511;28;20563;-77
2024/01/03 04:48:21;;;;;;;0.53;0.53;;;;;;;;;;5034157;28;20490;-77
2024/01/03 04:50:47;;;;;;;1.43;0.50;;;;;;;;;;5033704;28;20559;-77
2024/01/03 04:53:14;;;;;;;3.70;0.87;;;;;;;;;;5034714;28;20475;-79
2024/01/03 04:55:42;;;;;;;0.93;0.70;;;;;;;;;;5033686;28;20516;-79
2024/01/03 04:58:08;;;;;;;0.40;0.40;;;;;;;;;;5033685;28;20567;-77
2024/01/03 05:00:36;;;;;;;1.43;0.50;;;;;;;;;;5034072;28;20468;-78
2024/01/03 05:03:03;;;;;;;2.10;0.40;;;;;;;;;;5034157;28;20480;-79
2024/01/03 05:05:29;;;;;;;2.17;0.57;;;;;;;;;;5033948;28;20878;-79
2024/01/03 05:07:56;;;;;;;0.60;0.60;;;;;;;;;;5035207;28;20472;-79
2024/01/03 05:10:22;;;;;;;0.77;0.57;;;;;;;;;;5034300;28;21066;-79
2024/01/03 05:12:50;;;;;;;0.90;0.60;;;;;;;;;;5035167;28;20562;-77
2024/01/03 05:15:17;;;;;;;2.63;0.70;;;;;;;;;;5034218;28;20570;-77
2024/01/03 05:17:44;;;;;;;1.30;0.60;;;;;;;;;;5035068;28;20515;-77
2024/01/03 05:20:11;;;;;;;0.57;0.57;;;;;;;;;;5035074;28;20893;-77
2024/01/03 05:22:37;;;;;;;1.33;0.40;;;;;;;;;;5035063;28;20475;-77
2024/01/03 05:25:06;;;;;;;1.73;0.80;;;;;;;;;;5034499;28;20548;-77
2024/01/03 05:27:32;;;;;;;0.83;0.50;;;;;;;;;;5034277;28;20437;-79
2024/01/03 05:30:00;;;;;;;0.80;0.60;;;;;;;;;;5038342;28;20551;-78
2024/01/03 05:32:27;;;;;;;1.53;0.50;;;;;;;;;;5039021;28;20519;-78
2024/01/03 05:34:53;;;;;;;0.50;0.30;;;;;;;;;;5038712;28;20556;-78
2024/01/03 05:37:19;;;;;;;1.23;0.30;;;;;;;;;;5039230;28;20552;-78
2024/01/03 05:39:46;;;;;;;1.47;0.63;;;;;;;;;;5038523;28;20551;-78
2024/01/03 05:42:12;;;;;;;1.87;0.83;;;;;;;;;;5039317;28;20530;-78
2024/01/03 05:44:39;;;;;;;2.00;0.67;;;;;;;;;;5038605;28;20538;-78
2024/01/03 05:47:07;;;;;;;6.77;1.00;;;;;;;;;;5039615;28;20544;-77
2024/01/03 05:49:34;;;;;;;3.67;0.93;;;;;;;;;;5038345;28;20555;-78
2024/01/03 05:52:01;;;;;;;3.20;1.43;;;;;;;;;;5038514;28;20930;-78
2024/01/03 05:54:27;;;;;;;6.03;1.70;;;;;;;;;;5037343;28;20548;-78
2024/01/03 05:56:54;;;;;;;5.50;2.20;;;;;;;;;;5038381;28;20512;-78
2024/01/03 05:59:20;;;;;;;15.70;4.30;;;;;;;;;;5036879;28;20493;-78
2024/01/03 06:01:47;;;;;;;8.70;3.20;;;;;;;;;;5037871;28;20445;-78
2024/01/03 06:04:14;;;;;;;13.73;3.10;;;;;;;;;;5037203;28;21053;-78
2024/01/03 06:06:41;;;;;;;14.27;2.37;;;;;;;;;;5037526;28;21022;-78
2024/01/03 06:09:08;;;;;;;10.23;3.17;;;;;;;;;;5036970;28;20463;-78
2024/01/03 06:11:34;;;;;;;16.37;3.03;;;;;;;;;;5037479;28;20445;-78
2024/01/03 06:14:00;;;;;;;4.30;1.90;;;;;;;;;;5036365;28;20528;-77
2024/01/03 06:16:27;;;;;;;11.37;2.77;;;;;;;;;;5036899;28;20532;-78
2024/01/03 06:18:53;;;;;;;9.20;3.10;;;;;;;;;;5036061;28;20475;-79
2024/01/03 06:21:21;;;;;;;13.10;3.20;;;;;;;;;;5037181;28;20503;-78
2024/01/03 06:23:48;;;;;;;16.93;3.53;;;;;;;;;;5035899;28;20460;-78
2024/01/03 06:26:14;;;;;;;6.73;2.70;;;;;;;;;;5036277;28;21002;-78
2024/01/03 06:28:40;;;;;;;6.60;3.57;;;;;;;;;;5036351;28;20528;-78
2024/01/03 06:31:07;;;;;;;12.33;2.77;;;;;;;;;;5035312;28;20567;-78
2024/01/03 06:33:33;;;;;;;13.07;3.87;;;;;;;;;;5036532;28;20524;-78
2024/01/03 06:36:00;;;;;;;8.90;3.70;;;;;;;;;;5035369;28;20924;-78
2024/01/03 06:38:28;;;;;;;16.90;2.70;;;;;;;;;;5035842;28;20575;-78
2024/01/03 06:40:54;;;;;;;9.23;2.30;;;;;;;;;;5035514;28;20891;-78
2024/01/03 06:43:21;;;;;;;8.50;3.27;;;;;;;;;;5035596;28;20544;-78
2024/01/03 06:45:47;;;;;;;10.83;3.80;;;;;;;;;;5034958;28;20477;-78
2024/01/03 06:48:13;;;;;;;11.83;2.77;;;;;;;;;;5035729;28;20524;-78
2024/01/03 06:50:40;;;;;;;10.17;2.50;;;;;;;;;;5035691;28;20567;-78
2024/01/03 06:53:06;;;;;;;7.80;3.03;;;;;;;;;;5035418;28;20897;-78
2024/01/03 06:55:34;;;;;;;8.30;2.70;;;;;;;;;;5034690;28;20557;-77
2024/01/03 06:58:00;;;;;;;13.50;2.50;;;;;;;;;;5035252;28;20918;-77
2024/01/03 07:00:27;;;;;;;11.40;3.00;;;;;;;;;;5034855;28;20555;-78
2024/01/03 07:02:53;;;;;;;16.53;2.67;;;;;;;;;;5035351;28;20445;-78
2024/01/03 07:05:20;;;;;;;9.53;3.10;;;;;;;;;;5034598;28;20655;-78
2024/01/03 07:07:46;;;;;;;12.90;3.00;;;;;;;;;;5035137;28;20523;-77
2024/01/03 07:10:13;;;;;;;6.87;2.77;;;;;;;;;;5034561;28;20548;-77
2024/01/03 07:12:40;;;;;;;13.07;3.57;;;;;;;;;;5035192;28;20532;-77
2024/01/03 07:15:08;;;;;;;10.50;3.70;;;;;;;;;;5034309;28;20544;-80
2024/01/03 07:17:35;;;;;;;10.00;2.20;;;;;;;;;;5034734;28;20530;-79
2024/01/03 07:20:01;;;;;;;7.50;2.00;;;;;;;;;;5034620;28;20508;-79
2024/01/03 07:22:28;;;;;;;10.77;2.33;;;;;;;;;;5034956;28;20452;-79
2024/01/03 07:24:54;;;;;;;13.43;3.00;;;;;;;;;;5034027;28;20552;-77
2024/01/03 07:27:21;;;;;;;9.40;2.40;;;;;;;;;;5034659;28;20444;-77
2024/01/03 07:29:49;;;;;;;7.70;2.53;;;;;;;;;;5034624;28;20563;-78
2024/01/03 07:32:15;;;;;;;13.60;3.03;;;;;;;;;;5034979;28;20441;-78
2024/01/03 07:34:42;;;;;;;10.90;4.00;;;;;;;;;;5034265;28;20530;-77
2024/01/03 07:37:08;;;;;;;15.80;4.33;;;;;;;;;;5034401;28;21022;-78
2024/01/03 07:39:35;;;;;;;15.70;5.20;;;;;;;;;;5034089;28;20551;-78
2024/01/03 07:42:01;;;;;;;17.17;4.47;;;;;;;;;;5034019;28;20987;-77
2024/01/03 07:44:33;;;;;;;15.80;3.70;;;;;;;;;;5034033;28;20553;-77
2024/01/03 07:47:01;;;;;;;15.87;4.17;;;;;;;;;;5034122;28;20429;-78
2024/01/03 07:49:27;;;;;;;23.07;3.23;;;;;;;;;;5033758;28;21061;-79
2024/01/03 07:51:54;;;;;;;19.73;4.20;;;;;;;;;;5033830;28;20525;-80
2024/01/03 07:54:20;;;;;;;8.77;3.03;;;;;;;;;;5033491;28;20551;-78
2024/01/03 07:56:47;;;;;;;14.20;4.00;;;;;;;;;;5034183;28;20524;-79
2024/01/03 07:59:13;;;;;;;17.50;4.20;;;;;;;;;;5033420;28;20548;-77
2024/01/03 08:01:40;;;;;;;12.33;3.47;;;;;;;;;;5034371;28;20447;-78
2024/01/03 08:04:07;;;;;;;9.00;2.70;;;;;;;;;;5033563;28;20536;-77
2024/01/03 08:06:34;;;;;;;7.07;2.77;;;;;;;;;;5034110;28;20461;-78
2024/01/03 08:09:00;;;;;;;10.67;2.93;;;;;;;;;;5033318;28;20520;-78
2024/01/03 08:11:27;;;;;;;8.23;2.83;;;;;;;;;;5033575;28;20999;-78
2024/01/03 08:13:53;;;;;;;7.03;2.10;;;;;;;;;;5033379;28;20452;-78
2024/01/03 08:16:19;;;;;;;7.40;2.27;;;;;;;;;;5033798;28;20880;-78
2024/01/03 08:18:46;;;;;;;7.10;2.23;;;;;;;;;;5033703;28;20563;-79
2024/01/03 08:21:15;;;;;;;4.13;1.53;;;;;;;;;;5033878;28;20436;-77
2024/01/03 08:23:42;;;;;;;10.80;2.60;;;;;;;;;;5033789;28;20480;-77
2024/01/03 08:26:08;;;;;;;8.00;2.00;;;;;;;;;;5033013;28;20555;-77
2024/01/03 08:28:36;;;;;;;5.57;1.83;;;;;;;;;;5033796;28;20528;-80
2024/01/03 08:31:02;;;;;;;6.20;2.07;;;;;;;;;;5033103;28;20892;-78
2024/01/03 08:33:29;;;;;;;10.60;2.10;;;;;;;;;;5033344;28;20813;-78
2024/01/03 08:35:55;;;;;;;7.30;2.00;;;;;;;;;;5032752;28;20552;-77
2024/01/03 08:38:23;;;;;;;11.43;2.40;;;;;;;;;;5033401;28;20492;-78
2024/01/03 08:40:50;;;;;;;10.43;2.67;;;;;;;;;;5032836;28;20472;-78
2024/01/03 08:43:16;;;;;;;7.77;2.40;;;;;;;;;;5033454;28;20618;-78
2024/01/03 08:45:43;;;;;;;6.63;2.50;;;;;;;;;;5032580;28;20551;-80
2024/01/03 08:48:09;;;;;;;11.00;2.40;;;;;;;;;;5033535;28;20531;-80
2024/01/03 08:50:35;;;;;;;10.67;2.63;;;;;;;;;;5032836;28;20555;-79
2024/01/03 08:53:02;;;;;;;9.53;2.60;;;;;;;;;;5033156;28;20891;-80
2024/01/03 08:55:30;;;;;;;9.00;3.17;;;;;;;;;;5032641;28;20564;-80
2024/01/03 08:57:56;;;;;;;10.70;3.30;;;;;;;;;;5032937;28;20568;-80
2024/01/03 09:00:23;;;;;;;10.13;2.40;;;;;;;;;;5032764;28;20468;-79
2024/01/03 09:02:49;;;;;;;12.37;3.20;;;;;;;;;;5033636;28;20524;-79
2024/01/03 09:05:16;;;;;;;10.77;3.40;;;;;;;;;;5036480;28;20548;-79
2024/01/03 09:07:43;;;;;;;11.43;4.20;;;;;;;;;;5037215;28;20815;-79
2024/01/03 09:10:10;;;;;;;8.90;2.73;;;;;;;;;;5036983;28;20662;-79
2024/01/03 09:12:38;;;;;;;13.60;3.30;;;;;;;;;;5037186;28;20532;-80
2024/01/03 09:15:04;;;;;;;13.30;3.03;;;;;;;;;;5036403;28;20543;-79
2024/01/03 09:17:31;;;;;;;16.23;2.70;;;;;;;;;;5033576;28;20547;-79
2024/01/03 09:19:58;;;;;;;14.27;3.50;;;;;;;;;;5036710;28;20876;-80
2024/01/03 09:22:24;;;;;;;6.10;2.30;;;;;;;;;;5036268;28;21073;-79
2024/01/03 09:24:50;;;;;;;7.30;2.23;;;;;;;;;;5036855;28;20540;-79
2024/01/03 09:27:17;;;;;;;9.00;2.53;;;;;;;;;;5036373;28;20551;-79
2024/01/03 09:29:45;;;;;;;6.00;2.00;;;;;;;;;;5036854;28;20528;-79
2024/01/03 09:32:12;;;;;;;10.70;2.60;;;;;;;;;;5036570;28;20551;-79
2024/01/03 09:34:41;;;;;;;12.57;2.40;;;;;;;;;;5036756;28;20539;-79
2024/01/03 09:37:07;;;;;;;14.27;3.37;;;;;;;;;;5036044;28;20564;-79
2024/01/03 09:39:34;;;;;;;7.10;2.80;;;;;;;;;;5036554;28;20492;-79
2024/01/03 09:42:00;;;;;;;10.07;3.10;;;;;;;;;;5036188;28;20548;-79
2024/01/03 09:44:27;;;;;;;7.87;2.73;;;;;;;;;;5036506;28;20469;-79
2024/01/03 09:46:56;;;;;;;13.57;4.33;;;;;;;;;;5036145;28;20543;-80
2024/01/03 09:49:22;;;;;;;9.63;2.87;;;;;;;;;;5036626;28;20443;-79
2024/01/03 09:51:49;;;;;;;6.70;2.97;;;;;;;;;;5035963;28;20543;-79
2024/01/03 09:54:15;;;;;;;11.97;3.00;;;;;;;;;;5036522;28;20544;-79
2024/01/03 09:56:42;;;;;;;6.80;2.20;;;;;;;;;;5035982;28;20563;-79
2024/01/03 09:59:08;;;;;;;11.67;2.70;;;;;;;;;;5035878;28;21085;-80
2024/01/03 10:01:35;;;;;;;8.57;2.60;;;;;;;;;;5035764;28;20437;-80
2024/01/03 10:04:03;;;;;;;11.40;2.60;;;;;;;;;;5036214;28;20531;-79
2024/01/03 10:06:29;;;;;;;6.60;2.17;;;;;;;;;;5035511;28;20880;-79
2024/01/03 10:08:59;;;;;;;15.50;2.60;;;;;;;;;;5036116;28;20520;-80
2024/01/03 10:11:26;;;;;;;5.80;1.90;;;;;;;;;;5037033;28;20465;-78
2024/01/03 10:13:53;;;;;;;9.10;2.93;;;;;;;;;;5035279;28;20927;-78
2024/01/03 10:16:24;;;;;;;8.63;1.90;;;;;;;;;;5035587;28;20465;-78
2024/01/03 10:19:07;;;;;;;8.30;2.80;;;;;;;;;;5035622;28;20480;-79
2024/01/03 10:21:33;;;;;;;14.80;3.00;;;;;;;;;;5035516;28;20496;-78
2024/01/03 10:24:01;;;;;;;11.43;4.20;;;;;;;;;;5035531;28;20531;-78
2024/01/03 10:26:27;;;;;;;10.80;2.77;;;;;;;;;;5035387;28;20527;-79
2024/01/03 10:29:08;;;;;;;8.67;2.53;;;;;;;;;;5035828;28;20615;-81
2024/01/03 10:31:34;;;;;;;10.30;3.87;;;;;;;;;;5035828;28;20509;-80
2024/01/03 10:34:00;;;;;;;11.20;2.90;;;;;;;;;;5035303;28;20527;-79
2024/01/03 10:36:29;;;;;;;7.43;2.43;;;;;;;;;;5034924;28;21014;-80
2024/01/03 10:38:56;;;;;;;6.40;2.40;;;;;;;;;;5035524;28;20487;-79
2024/01/03 10:41:23;;;;;;;9.03;1.93;;;;;;;;;;5034949;28;20519;-80
2024/01/03 10:43:50;;;;;;;9.60;2.20;;;;;;;;;;5035374;28;20540;-80
2024/01/03 10:46:17;;;;;;;8.23;1.80;;;;;;;;;;5035510;28;20852;-79
2024/01/03 10:48:44;;;;;;;9.80;2.03;;;;;;;;;;5034692;28;20539;-79
2024/01/03 10:51:13;;;;;;;9.10;1.90;;;;;;;;;;5035314;28;20876;-79
2024/01/03 10:53:42;;;;;;;13.50;2.60;;;;;;;;;;5034619;28;20858;-80
2024/01/03 10:56:10;;;;;;;6.50;1.20;;;;;;;;;;5035192;28;20465;-79
2024/01/03 10:58:39;;;;;;;7.40;1.80;;;;;;;;;;5034438;28;21057;-79
2024/01/03 11:01:13;;;;;;;8.27;1.80;;;;;;;;;;5035074;28;20545;-80
2024/01/03 11:03:43;;;;;;;6.50;1.90;;;;;;;;;;5035169;28;20552;-79
2024/01/03 11:06:12;;;;;;;6.70;2.40;;;;;;;;;;5034920;28;20543;-80
2024/01/03 11:08:44;;;;;;;7.07;1.57;;;;;;;;;;5034472;28;20472;-80
2024/01/03 11:11:11;;;;;;;5.27;2.10;;;;;;;;;;5035002;28;20500;-79
2024/01/03 11:13:39;;;;;;;12.70;2.40;;;;;;;;;;5034199;28;20877;-79
2024/01/03 11:16:06;;;;;;;9.30;2.70;;;;;;;;;;5034466;28;21033;-80
2024/01/03 11:18:54;;;;;;;9.10;2.80;;;;;;;;;;5034829;28;20504;-79
2024/01/03 11:21:40;;;;;;;10.43;3.10;;;;;;;;;;5034340;28;20444;-79
2024/01/03 11:24:21;;;;;;;6.73;1.63;;;;;;;;;;5034364;28;20483;-80
2024/01/03 11:27:04;;;;;;;11.43;3.53;;;;;;;;;;5032998;28;20543;-79
2024/01/03 11:29:42;;;;;;;19.13;2.27;;;;;;;;;;5034381;28;20425;-79
2024/01/03 11:32:09;;;;;;;5.27;1.67;;;;;;;;;;5034057;28;20522;-80
2024/01/03 11:34:39;;;;;;;14.07;2.83;;;;;;;;;;5034369;28;20553;-79
2024/01/03 11:37:05;;;;;;;6.00;2.20;;;;;;;;;;5033773;28;20544;-80
2024/01/03 11:39:35;;;;;;;9.23;2.20;;;;;;;;;;5034418;28;20575;-79
2024/01/03 11:42:03;;;;;;;5.50;1.73;;;;;;;;;;5033762;28;21067;-80
2024/01/03 11:44:30;;;;;;;8.33;2.60;;;;;;;;;;5034008;28;20532;-80
2024/01/03 11:46:59;;;;;;;7.23;2.40;;;;;;;;;;5033597;28;20896;-80
2024/01/03 11:49:26;;;;;;;17.60;4.20;;;;;;;;;;5034218;28;20846;-79
2024/01/03 11:51:52;;;;;;;9.57;2.00;;;;;;;;;;5033778;28;20540;-80
2024/01/03 11:54:19;;;;;;;6.60;1.60;;;;;;;;;;5033855;28;21055;-79
2024/01/03 11:56:45;;;;;;;4.07;1.70;;;;;;;;;;5033569;28;20555;-80
2024/01/03 11:59:13;;;;;;;5.70;2.07;;;;;;;;;;5033440;28;20571;-79
2024/01/03 12:01:39;;;;;;;4.77;1.60;;;;;;;;;;5033349;28;20804;-80
2024/01/03 12:04:09;;;;;;;7.20;2.33;;;;;;;;;;5033784;28;20531;-79
2024/01/03 12:06:36;;;;;;;15.20;2.30;;;;;;;;;;5033452;28;20432;-79
2024/01/03 12:09:03;;;;;;;6.33;1.70;;;;;;;;;;5033733;28;20940;-79
2024/01/03 12:11:30;;;;;;;6.90;1.93;;;;;;;;;;5033372;28;20539;-79
2024/01/03 12:13:56;;;;;;;6.60;1.90;;;;;;;;;;5033711;28;20529;-80
2024/01/03 12:16:24;;;;;;;6.33;2.10;;;;;;;;;;5033327;28;20532;-80
2024/01/03 12:18:51;;;;;;;5.70;2.00;;;;;;;;;;5033604;28;20572;-80
2024/01/03 12:21:17;;;;;;;14.07;2.40;;;;;;;;;;5032938;28;20531;-83
2024/01/03 12:23:53;;;;;;;4.00;1.83;;;;;;;;;;5033691;28;20526;-79
2024/01/03 12:26:20;;;;;;;6.77;2.73;;;;;;;;;;5033018;28;20504;-80
2024/01/03 12:28:46;;;;;;;5.77;2.70;;;;;;;;;;5033526;28;20519;-80
2024/01/03 12:31:17;;;;;;;12.40;2.93;;;;;;;;;;5033557;28;20477;-79
2024/01/03 12:33:45;;;;;;;7.03;1.90;;;;;;;;;;5033232;28;20493;-79
2024/01/03 12:36:12;;;;;;;9.97;2.40;;;;;;;;;;5033421;28;20464;-79
2024/01/03 12:38:40;;;;;;;14.17;2.47;;;;;;;;;;5032647;28;20564;-80
2024/01/03 12:41:06;;;;;;;12.93;2.20;;;;;;;;;;5033521;28;20487;-80
2024/01/03 12:43:33;;;;;;;7.90;3.03;;;;;;;;;;5033181;28;20567;-80
2024/01/03 12:46:00;;;;;;;7.57;2.53;;;;;;;;;;5033043;28;20469;-80
2024/01/03 12:48:26;;;;;;;7.40;1.87;;;;;;;;;;5033497;28;20564;-79
2024/01/03 12:50:54;;;;;;;11.33;2.57;;;;;;;;;;5033035;28;20962;-79
2024/01/03 12:53:20;;;;;;;10.47;1.90;;;;;;;;;;5032599;28;20978;-79
2024/01/03 12:55:47;;;;;;;13.47;2.77;;;;;;;;;;5033190;28;20543;-80
2024/01/03 12:58:15;;;;;;;8.67;2.90;;;;;;;;;;5032871;28;20994;-80
2024/01/03 13:00:41;;;;;;;10.43;2.57;;;;;;;;;;5033125;28;20465;-79
2024/01/03 13:03:07;;;;;;;8.53;2.20;;;;;;;;;;5032290;28;20560;-79
2024/01/03 13:05:34;;;;;;;16.37;3.20;;;;;;;;;;5033249;28;20556;-79
2024/01/03 13:08:03;;;;;;;10.07;3.93;;;;;;;;;;5032840;28;20551;-79
2024/01/03 13:10:30;;;;;;;8.40;2.00;;;;;;;;;;5032861;28;20444;-80
2024/01/03 13:12:56;;;;;;;6.57;2.23;;;;;;;;;;5032522;28;20468;-80
2024/01/03 13:15:23;;;;;;;11.40;2.60;;;;;;;;;;5032941;28;20976;-79
2024/01/03 13:17:49;;;;;;;5.90;2.40;;;;;;;;;;5032851;28;20983;-79
2024/01/03 13:20:16;;;;;;;6.10;2.37;;;;;;;;;;5033001;28;20516;-80
2024/01/03 13:22:44;;;;;;;7.27;3.37;;;;;;;;;;5032943;28;20544;-80
2024/01/03 13:25:11;;;;;;;12.00;3.03;;;;;;;;;;5033596;28;20465;-80
2024/01/03 13:27:39;;;;;;;12.53;3.10;;;;;;;;;;5033000;28;20555;-80
2024/01/03 13:30:07;;;;;;;12.17;3.07;;;;;;;;;;5033321;28;20441;-79
2024/01/03 13:32:35;;;;;;;9.03;3.03;;;;;;;;;;5032369;28;20472;-80
2024/01/03 13:35:02;;;;;;;8.73;2.67;;;;;;;;;;5033129;28;20465;-80
2024/01/03 13:37:28;;;;;;;12.17;3.57;;;;;;;;;;5032762;28;20885;-79
2024/01/03 13:39:55;;;;;;;11.07;4.10;;;;;;;;;;5032846;28;20675;-80
2024/01/03 13:42:23;;;;;;;12.53;4.37;;;;;;;;;;5032470;28;20553;-80
2024/01/03 13:44:49;;;;;;;7.60;3.20;;;;;;;;;;5032775;28;20551;-80
2024/01/03 13:47:15;;;;;;;16.83;7.93;;;;;;;;;;5032308;28;21050;-79
2024/01/03 13:49:42;;;;;;;6.50;3.73;;;;;;;;;;5034383;28;20511;-80
2024/01/03 13:52:08;;;;;;;10.03;3.50;;;;;;;;;;5035700;28;20555;-80
2024/01/03 13:54:35;;;;;;;12.73;3.53;;;;;;;;;;5036376;28;20652;-79
2024/01/03 13:57:01;;;;;;;5.97;2.83;;;;;;;;;;5035820;28;20468;-80
2024/01/03 13:59:29;;;;;;;7.87;2.80;;;;;;;;;;5035854;28;20583;-80
2024/01/03 14:01:55;;;;;;;11.73;2.37;;;;;;;;;;5035449;28;20563;-80
2024/01/03 14:04:22;;;;;;;6.40;2.53;;;;;;;;;;5036114;28;20461;-80
2024/01/03 14:06:48;;;;;;;4.27;2.00;;;;;;;;;;5035904;28;20883;-79
2024/01/03 14:09:15;;;;;;;5.27;2.50;;;;;;;;;;5035839;28;20452;-79
2024/01/03 14:11:42;;;;;;;8.80;2.50;;;;;;;;;;5035435;28;20462;-79
2024/01/03 14:14:08;;;;;;;5.60;2.83;;;;;;;;;;5035926;28;20514;-79
2024/01/03 14:16:37;;;;;;;10.73;2.77;;;;;;;;;;5035184;28;21026;-79
2024/01/03 14:19:04;;;;;;;16.63;4.60;;;;;;;;;;5035797;28;20444;-79
2024/01/03 14:21:30;;;;;;;7.97;3.20;;;;;;;;;;5035547;28;20532;-79
2024/01/03 14:23:56;;;;;;;8.00;3.50;;;;;;;;;;5035485;28;21009;-79
2024/01/03 14:26:23;;;;;;;12.27;3.57;;;;;;;;;;5035067;28;20954;-79
2024/01/03 14:28:49;;;;;;;5.37;2.70;;;;;;;;;;5035802;28;20520;-79
2024/01/03 14:31:16;;;;;;;8.40;2.80;;;;;;;;;;5035654;28;20521;-79
2024/01/03 14:33:44;;;;;;;10.37;2.50;;;;;;;;;;5035341;28;20498;-79
2024/01/03 14:36:13;;;;;;;8.03;1.93;;;;;;;;;;5035593;28;20555;-79
2024/01/03 14:38:40;;;;;;;10.00;2.07;;;;;;;;;;5034728;28;20567;-79